Time;durP1;ratioP1;P1;durP2;ratioP2;P2;SDS_P1;SDS_P2;PMS_P1;PMS_P2;Temp;Humidity;BMP_temperature;BMP_pressure;BME280_temperature;BME280_humidity;BME280_pressure;Samples;Min_cycle;Max_cycle;Signal;HPM_P1;HPM_P2
2024/03/16 00:01:13;;;;;;;;;;;12.90;54.30;;;;;;5072264;28;20000;-76
2024/03/16 00:03:39;;;;;;;;;;;12.90;53.70;;;;;;5072805;28;20007;-69
2024/03/16 00:06:05;;;;;;;;;;;12.90;53.50;;;;;;5074034;28;20447;-71
2024/03/16 00:08:31;;;;;;;;;;;12.90;53.50;;;;;;5074308;28;19924;-70
2024/03/16 00:10:57;;;;;;;;;;;12.90;54.20;;;;;;5073431;28;19924;-76
2024/03/16 00:13:23;;;;;;;;;;;12.80;54.20;;;;;;5072425;28;20050;-70
2024/03/16 00:15:49;;;;;;;;;;;12.80;54.60;;;;;;5074162;28;20015;-77
2024/03/16 00:18:15;;;;;;;;;;;12.80;54.50;;;;;;5072416;28;19970;-70
2024/03/16 00:20:42;;;;;;;;;;;12.80;55.20;;;;;;5073347;28;20346;-70
2024/03/16 00:23:07;;;;;;;;;;;12.60;55.10;;;;;;5056008;28;19917;-76
2024/03/16 00:25:33;;;;;;;;;;;12.50;56.60;;;;;;5056094;28;19966;-77
2024/03/16 00:28:00;;;;;;;;;;;12.40;56.50;;;;;;5055789;28;19925;-75
2024/03/16 00:30:26;;;;;;;;;;;12.50;56.60;;;;;;5073219;28;20331;-70
2024/03/16 00:32:52;;;;;;;;;;;12.40;55.50;;;;;;5055678;28;19921;-76
2024/03/16 00:35:18;;;;;;;;;;;12.50;56.40;;;;;;5072091;28;20015;-70
2024/03/16 00:37:45;;;;;;;;;;;12.40;55.70;;;;;;5073735;28;19943;-72
2024/03/16 00:40:11;;;;;;;;;;;12.50;56.40;;;;;;5072864;28;19939;-69
2024/03/16 00:42:37;;;;;;;;;;;12.50;56.20;;;;;;5055520;28;19939;-75
2024/03/16 00:45:03;;;;;;;;;;;12.50;56.10;;;;;;5072354;28;19920;-76
2024/03/16 00:47:29;;;;;;;;;;;12.40;55.80;;;;;;5073312;28;19920;-76
2024/03/16 00:49:55;;;;;;;;;;;12.40;56.80;;;;;;5073026;28;20005;-70
2024/03/16 00:52:21;;;;;;;;;;;12.40;56.70;;;;;;5073112;28;19951;-76
2024/03/16 00:54:47;;;;;;;;;;;12.40;57.00;;;;;;5072109;28;20014;-70
2024/03/16 00:57:13;;;;;;;;;;;12.30;57.10;;;;;;5073190;28;19927;-76
2024/03/16 00:59:39;;;;;;;;;;;12.30;57.30;;;;;;5072894;28;19920;-70
2024/03/16 01:02:04;;;;;;;;;;;12.20;57.10;;;;;;5072696;28;20385;-70
2024/03/16 01:04:32;;;;;;;;;;;12.30;57.40;;;;;;5072984;28;20031;-75
2024/03/16 01:06:59;;;;;;;;;;;12.20;56.90;;;;;;5072822;28;19920;-70
2024/03/16 01:09:25;;;;;;;;;;;12.20;57.00;;;;;;5071521;28;20023;-71
2024/03/16 01:11:52;;;;;;;;;;;12.10;56.90;;;;;;5070939;28;20007;-70
2024/03/16 01:14:18;;;;;;;;;;;12.10;58.00;;;;;;5071761;28;19986;-77
2024/03/16 01:16:44;;;;;;;;;;;12.00;58.20;;;;;;5055129;28;19951;-70
2024/03/16 01:19:10;;;;;;;;;;;12.10;57.60;;;;;;5071081;28;20020;-76
2024/03/16 01:21:36;;;;;;;;;;;12.10;57.20;;;;;;5072181;28;19963;-70
2024/03/16 01:24:03;;;;;;;;;;;12.00;57.50;;;;;;5071471;28;19999;-70
2024/03/16 01:26:28;;;;;;;;;;;11.90;57.80;;;;;;5071353;28;19974;-76
2024/03/16 01:28:54;;;;;;;;;;;11.90;58.00;;;;;;5054346;28;19924;-70
2024/03/16 01:31:20;;;;;;;;;;;11.90;57.90;;;;;;5070596;28;19970;-76
2024/03/16 01:33:46;;;;;;;;;;;11.90;57.80;;;;;;5072696;28;19917;-77
2024/03/16 01:36:13;;;;;;;;;;;11.90;57.90;;;;;;5073067;28;19978;-70
2024/03/16 01:38:39;;;;;;;;;;;11.90;58.10;;;;;;5071102;28;19921;-76
2024/03/16 01:41:05;;;;;;;;;;;11.90;57.90;;;;;;5070777;28;19932;-70
2024/03/16 01:43:31;;;;;;;;;;;11.90;57.90;;;;;;5072434;28;20498;-70
2024/03/16 01:45:57;;;;;;;;;;;12.00;57.70;;;;;;5071236;28;20452;-76
2024/03/16 01:48:24;;;;;;;;;;;12.00;57.60;;;;;;5054111;28;19932;-70
2024/03/16 01:50:51;;;;;;;;;;;12.00;57.70;;;;;;5053590;28;19931;-70
2024/03/16 01:53:17;;;;;;;;;;;11.90;57.90;;;;;;5071705;28;20003;-72
2024/03/16 01:55:43;;;;;;;;;;;12.00;57.80;;;;;;5070536;28;20444;-77
2024/03/16 01:58:09;;;;;;;;;;;12.00;58.10;;;;;;5070748;28;20468;-70
2024/03/16 02:00:35;;;;;;;;;;;11.90;58.10;;;;;;5069452;28;20419;-77
2024/03/16 02:03:02;;;;;;;;;;;11.90;58.20;;;;;;5070601;28;19920;-76
2024/03/16 02:05:28;;;;;;;;;;;11.90;57.50;;;;;;5070466;28;20384;-69
2024/03/16 02:07:54;;;;;;;;;;;11.90;57.70;;;;;;5070938;28;20380;-70
2024/03/16 02:10:21;;;;;;;;;;;11.90;57.30;;;;;;5071044;28;19921;-77
2024/03/16 02:12:47;;;;;;;;;;;11.90;58.00;;;;;;5053709;28;20255;-76
2024/03/16 02:15:13;;;;;;;;;;;12.00;57.80;;;;;;5070441;28;19931;-76
2024/03/16 02:17:40;;;;;;;;;;;11.90;57.90;;;;;;5053790;28;19917;-70
2024/03/16 02:22:51;;;;;;;;;;;11.80;58.10;;;;;;5071608;28;19967;-69
2024/03/16 02:25:18;;;;;;;;;;;11.80;58.60;;;;;;5071770;28;20011;-76
2024/03/16 02:27:44;;;;;;;;;;;11.70;58.70;;;;;;5053875;28;19928;-76
2024/03/16 02:30:10;;;;;;;;;;;11.70;58.80;;;;;;5071158;28;20019;-76
2024/03/16 02:32:37;;;;;;;;;;;11.70;58.60;;;;;;5070238;28;19931;-70
2024/03/16 02:35:03;;;;;;;;;;;11.70;58.50;;;;;;5070194;28;19942;-70
2024/03/16 02:37:29;;;;;;;;;;;11.70;58.20;;;;;;5070100;28;19924;-72
2024/03/16 02:39:55;;;;;;;;;;;11.80;58.50;;;;;;5071764;28;19921;-70
2024/03/16 02:42:21;;;;;;;;;;;11.70;58.60;;;;;;5069504;28;20015;-76
2024/03/16 02:44:47;;;;;;;;;;;11.80;58.80;;;;;;5071974;28;19925;-76
2024/03/16 02:47:13;;;;;;;;;;;11.70;59.00;;;;;;5071340;28;19924;-75
2024/03/16 02:49:40;;;;;;;;;;;11.70;59.10;;;;;;5071440;28;19920;-76
2024/03/16 02:52:06;;;;;;;;;;;11.60;59.10;;;;;;5053209;28;20339;-70
2024/03/16 02:54:32;;;;;;;;;;;11.60;59.60;;;;;;5069973;28;19925;-77
2024/03/16 02:56:58;;;;;;;;;;;11.50;60.00;;;;;;5071333;28;19935;-70
2024/03/16 02:59:24;;;;;;;;;;;11.50;59.80;;;;;;5071153;28;19920;-76
2024/03/16 03:01:50;;;;;;;;;;;11.40;60.20;;;;;;5070851;28;20396;-76
2024/03/16 03:04:16;;;;;;;;;;;11.40;59.90;;;;;;5070955;28;19927;-70
2024/03/16 03:06:42;;;;;;;;;;;11.40;59.90;;;;;;5070017;28;20023;-76
2024/03/16 03:09:09;;;;;;;;;;;11.50;59.70;;;;;;5071498;28;19959;-70
2024/03/16 03:11:37;;;;;;;;;;;11.50;59.50;;;;;;5070375;28;20439;-70
2024/03/16 03:14:04;;;;;;;;;;;11.40;59.40;;;;;;5073710;28;19939;-76
2024/03/16 03:16:30;;;;;;;;;;;11.50;59.20;;;;;;5056992;28;19922;-70
2024/03/16 03:18:56;;;;;;;;;;;11.50;59.40;;;;;;5073470;28;20365;-76
2024/03/16 03:21:22;;;;;;;;;;;11.50;59.60;;;;;;5056277;28;20007;-76
2024/03/16 03:23:48;;;;;;;;;;;11.50;59.60;;;;;;5073396;28;19916;-70
2024/03/16 03:26:13;;;;;;;;;;;11.50;59.30;;;;;;5075261;28;19924;-70
2024/03/16 03:28:39;;;;;;;;;;;11.50;59.40;;;;;;5073496;28;19923;-76
2024/03/16 03:31:08;;;;;;;;;;;11.50;59.70;;;;;;5072984;28;20335;-77
2024/03/16 03:33:34;;;;;;;;;;;11.50;59.30;;;;;;5074572;28;20331;-70
2024/03/16 03:36:02;;;;;;;;;;;11.50;59.40;;;;;;5073433;28;19920;-76
2024/03/16 03:38:29;;;;;;;;;;;11.50;59.20;;;;;;5056632;28;19943;-69
2024/03/16 03:40:55;;;;;;;;;;;11.50;59.30;;;;;;5074188;28;20289;-70
2024/03/16 03:43:24;;;;;;;;;;;11.60;59.10;;;;;;5074522;28;20018;-70
2024/03/16 03:46:18;;;;;;;;;;;11.50;59.80;;;;;;5073506;28;19924;-72
2024/03/16 03:48:49;;;;;;;;;;;11.40;60.00;;;;;;5074509;28;20504;-70
2024/03/16 03:51:15;;;;;;;;;;;11.40;59.90;;;;;;5074010;28;19932;-70
2024/03/16 03:53:41;;;;;;;;;;;11.40;59.80;;;;;;5074144;28;20006;-70
2024/03/16 03:56:07;;;;;;;;;;;11.40;59.90;;;;;;5074480;28;20037;-70
2024/03/16 03:58:33;;;;;;;;;;;11.40;60.20;;;;;;5073998;28;19925;-76
2024/03/16 04:00:59;;;;;;;;;;;11.40;60.00;;;;;;5072245;28;19932;-77
2024/03/16 04:03:25;;;;;;;;;;;11.40;60.30;;;;;;5073924;28;20424;-70
2024/03/16 04:08:35;;;;;;;;;;;11.40;60.60;;;;;;5073739;28;20017;-76
2024/03/16 04:11:04;;;;;;;;;;;11.40;60.20;;;;;;5073460;28;19928;-69
2024/03/16 04:13:31;;;;;;;;;;;11.40;60.00;;;;;;5073484;28;20420;-77
2024/03/16 04:15:56;;;;;;;;;;;11.50;60.60;;;;;;5056068;28;19921;-70
2024/03/16 04:18:22;;;;;;;;;;;11.40;60.80;;;;;;5073392;28;20023;-70
2024/03/16 04:20:48;;;;;;;;;;;11.40;60.60;;;;;;5073349;28;19924;-75
2024/03/16 04:23:14;;;;;;;;;;;11.30;61.00;;;;;;5071276;28;20007;-70
2024/03/16 04:25:40;;;;;;;;;;;11.30;61.00;;;;;;5055668;28;20007;-72
2024/03/16 04:28:06;;;;;;;;;;;11.30;60.50;;;;;;5072261;28;20007;-77
2024/03/16 04:30:32;;;;;;;;;;;11.40;60.40;;;;;;5072718;28;20369;-76
2024/03/16 04:32:58;;;;;;;;;;;11.40;60.80;;;;;;5055460;28;20453;-70
2024/03/16 04:35:23;;;;;;;;;;;11.40;60.60;;;;;;5072044;28;20313;-76
2024/03/16 04:37:50;;;;;;;;;;;11.30;60.90;;;;;;5072108;28;20411;-74
2024/03/16 04:40:16;;;;;;;;;;;11.30;60.70;;;;;;5071323;28;20447;-77
2024/03/16 04:42:42;;;;;;;;;;;11.40;60.70;;;;;;5071985;28;20376;-75
2024/03/16 04:45:08;;;;;;;;;;;11.30;60.40;;;;;;5071895;28;19968;-70
2024/03/16 04:47:34;;;;;;;;;;;11.40;60.60;;;;;;5055328;28;20630;-74
2024/03/16 04:50:00;;;;;;;;;;;11.30;61.30;;;;;;5071753;28;20012;-73
2024/03/16 04:52:26;;;;;;;;;;;11.30;61.90;;;;;;5071066;28;19927;-73
2024/03/16 04:54:52;;;;;;;;;;;11.30;61.90;;;;;;5054894;28;20428;-69
2024/03/16 04:57:18;;;;;;;;;;;11.30;62.10;;;;;;5071617;28;19976;-74
2024/03/16 04:59:44;;;;;;;;;;;11.20;62.80;;;;;;5071472;28;20366;-76
2024/03/16 05:02:10;;;;;;;;;;;11.20;61.70;;;;;;5072307;28;19967;-77
2024/03/16 05:04:36;;;;;;;;;;;11.20;61.90;;;;;;5072800;28;20015;-70
2024/03/16 05:07:01;;;;;;;;;;;11.20;62.00;;;;;;5072807;28;20032;-71
2024/03/16 05:09:28;;;;;;;;;;;11.20;62.20;;;;;;5072813;28;20414;-77
2024/03/16 05:11:54;;;;;;;;;;;11.30;61.80;;;;;;5071880;28;19924;-72
2024/03/16 05:14:20;;;;;;;;;;;11.30;61.40;;;;;;5072577;28;19924;-70
2024/03/16 05:16:46;;;;;;;;;;;11.30;61.60;;;;;;5072603;28;20023;-70
2024/03/16 05:19:12;;;;;;;;;;;11.30;62.00;;;;;;5071078;28;20055;-70
2024/03/16 05:21:38;;;;;;;;;;;11.30;62.00;;;;;;5071961;28;19948;-76
2024/03/16 05:24:04;;;;;;;;;;;11.30;62.20;;;;;;5054622;28;19917;-77
2024/03/16 05:26:31;;;;;;;;;;;11.20;61.40;;;;;;5072837;28;19916;-70
2024/03/16 05:28:57;;;;;;;;;;;11.20;62.70;;;;;;5072247;28;19920;-76
2024/03/16 05:31:24;;;;;;;;;;;11.10;62.20;;;;;;5070487;28;19920;-70
2024/03/16 05:33:50;;;;;;;;;;;11.00;61.80;;;;;;5070937;28;20367;-77
2024/03/16 05:36:16;;;;;;;;;;;11.00;62.10;;;;;;5069909;28;19924;-74
2024/03/16 05:38:46;;;;;;;;;;;11.10;61.60;;;;;;5070986;28;19920;-69
2024/03/16 05:41:12;;;;;;;;;;;11.10;62.20;;;;;;5070340;28;19933;-69
2024/03/16 05:43:38;;;;;;;;;;;11.20;61.60;;;;;;5072037;28;19916;-75
2024/03/16 05:46:04;;;;;;;;;;;11.20;61.10;;;;;;5070812;28;19928;-77
2024/03/16 05:48:30;;;;;;;;;;;11.30;61.60;;;;;;5071981;28;19928;-70
2024/03/16 05:50:56;;;;;;;;;;;11.30;61.60;;;;;;5071754;28;19932;-70
2024/03/16 05:53:23;;;;;;;;;;;11.40;61.10;;;;;;5071841;28;20011;-76
2024/03/16 05:55:50;;;;;;;;;;;11.40;61.20;;;;;;5054142;28;20388;-69
2024/03/16 05:58:16;;;;;;;;;;;11.40;61.10;;;;;;5070503;28;19916;-76
2024/03/16 06:00:43;;;;;;;;;;;11.40;61.30;;;;;;5053421;28;19925;-77
2024/03/16 06:03:08;;;;;;;;;;;11.40;61.60;;;;;;5070496;28;19924;-71
2024/03/16 06:05:37;;;;;;;;;;;11.40;62.30;;;;;;5071615;28;19925;-77
2024/03/16 06:08:04;;;;;;;;;;;11.40;62.40;;;;;;5070539;28;20359;-76
2024/03/16 06:10:49;;;;;;;;;;;11.40;62.50;;;;;;5069782;28;19924;-70
2024/03/16 06:13:15;;;;;;;;;;;11.50;61.80;;;;;;5071493;28;19974;-70
2024/03/16 06:15:41;;;;;;;;;;;11.50;62.50;;;;;;5072125;28;20371;-71
2024/03/16 06:18:07;;;;;;;;;;;11.60;62.00;;;;;;5070170;28;19955;-70
2024/03/16 06:20:33;;;;;;;;;;;11.70;61.90;;;;;;5069753;28;20011;-70
2024/03/16 06:22:59;;;;;;;;;;;11.70;61.40;;;;;;5070264;28;19917;-71
2024/03/16 06:25:25;;;;;;;;;;;11.70;61.80;;;;;;5070210;28;19977;-76
2024/03/16 06:27:54;;;;;;;;;;;11.80;62.10;;;;;;5071674;28;19978;-76
2024/03/16 06:30:22;;;;;;;;;;;11.80;62.60;;;;;;5071078;28;19921;-70
2024/03/16 06:33:08;;;;;;;;;;;11.80;61.50;;;;;;5070312;28;20578;-76
2024/03/16 06:35:36;;;;;;;;;;;11.90;61.60;;;;;;5056136;28;19928;-77
2024/03/16 06:38:21;;;;;;;;;;;11.90;61.50;;;;;;5071395;28;19940;-77
2024/03/16 06:40:47;;;;;;;;;;;11.90;61.90;;;;;;5069614;28;19924;-76
2024/03/16 06:43:13;;;;;;;;;;;12.00;61.40;;;;;;5053211;28;19929;-76
2024/03/16 06:45:39;;;;;;;;;;;12.10;61.80;;;;;;5070138;28;20465;-77
2024/03/16 06:48:05;;;;;;;;;;;12.10;61.50;;;;;;5073776;28;20428;-77
2024/03/16 06:50:31;;;;;;;;;;;12.10;60.50;;;;;;5075058;28;20431;-70
2024/03/16 06:52:59;;;;;;;;;;;12.30;61.30;;;;;;5074002;28;19916;-75
2024/03/16 06:55:25;;;;;;;;;;;12.30;62.10;;;;;;5057338;28;20449;-76
2024/03/16 06:57:51;;;;;;;;;;;12.40;61.00;;;;;;5057474;28;19962;-70
2024/03/16 07:00:17;;;;;;;;;;;12.50;61.00;;;;;;5074771;28;19964;-76
2024/03/16 07:02:43;;;;;;;;;;;12.60;60.90;;;;;;5075197;28;20377;-70
2024/03/16 07:07:53;;;;;;;;;;;12.80;60.30;;;;;;5075120;28;19955;-70
2024/03/16 07:10:19;;;;;;;;;;;12.90;60.30;;;;;;5073260;28;20351;-75
2024/03/16 07:12:45;;;;;;;;;;;13.10;60.30;;;;;;5075168;28;19920;-70
2024/03/16 07:15:15;;;;;;;;;;;13.10;59.90;;;;;;5073673;28;20019;-70
2024/03/16 07:17:42;;;;;;;;;;;13.30;60.60;;;;;;5057531;28;20299;-76
2024/03/16 07:20:10;;;;;;;;;;;13.40;59.30;;;;;;5074479;28;19921;-77
2024/03/16 07:22:55;;;;;;;;;;;13.50;58.70;;;;;;5075005;28;19916;-71
2024/03/16 07:25:21;;;;;;;;;;;13.60;59.30;;;;;;5073367;28;20329;-70
2024/03/16 07:27:48;;;;;;;;;;;13.70;59.30;;;;;;5056929;28;19927;-73
2024/03/16 07:30:14;;;;;;;;;;;13.80;59.10;;;;;;5074223;28;19924;-77
2024/03/16 07:32:40;;;;;;;;;;;13.90;58.70;;;;;;5057118;28;20419;-76
2024/03/16 07:37:50;;;;;;;;;;;14.00;57.50;;;;;;5074626;28;19927;-76
2024/03/16 07:40:16;;;;;;;;;;;14.20;57.30;;;;;;5073934;28;20355;-70
2024/03/16 07:42:42;;;;;;;;;;;14.20;56.80;;;;;;5074407;28;20424;-71
2024/03/16 07:45:08;;;;;;;;;;;14.40;56.80;;;;;;5073131;28;20003;-70
2024/03/16 07:47:34;;;;;;;;;;;14.50;56.30;;;;;;5073076;28;19920;-70
2024/03/16 07:50:00;;;;;;;;;;;14.70;55.90;;;;;;5073105;28;19921;-69
2024/03/16 07:52:29;;;;;;;;;;;14.70;56.40;;;;;;5073617;28;19955;-70
2024/03/16 07:54:55;;;;;;;;;;;14.80;56.30;;;;;;5072769;28;19921;-76
2024/03/16 07:57:21;;;;;;;;;;;14.80;56.10;;;;;;5055963;28;19926;-75
2024/03/16 07:59:47;;;;;;;;;;;14.90;56.10;;;;;;5071971;28;19978;-70
2024/03/16 08:02:13;;;;;;;;;;;15.00;56.10;;;;;;5062829;28;20229;-71
2024/03/16 08:04:39;;;;;;;;;;;15.10;55.80;;;;;;5067505;28;20019;-70
2024/03/16 08:07:05;;;;;;;;;;;15.20;55.80;;;;;;5060503;28;19959;-77
2024/03/16 08:09:30;;;;;;;;;;;15.30;55.60;;;;;;5074011;28;19924;-76
2024/03/16 08:11:57;;;;;;;;;;;15.40;55.40;;;;;;5072992;28;19963;-76
2024/03/16 08:14:24;;;;;;;;;;;15.50;55.30;;;;;;5071917;28;19924;-76
2024/03/16 08:16:50;;;;;;;;;;;15.50;54.80;;;;;;5062477;28;20467;-77
2024/03/16 08:19:16;;;;;;;;;;;15.60;53.60;;;;;;5065611;28;19928;-76
2024/03/16 08:21:43;;;;;;;;;;;15.70;53.10;;;;;;5073120;28;19929;-70
2024/03/16 08:24:09;;;;;;;;;;;15.80;52.00;;;;;;5072157;28;19922;-76
2024/03/16 08:26:34;;;;;;;;;;;16.10;52.10;;;;;;5073559;28;20014;-70
2024/03/16 08:29:00;;;;;;;;;;;16.20;51.90;;;;;;5073482;28;20019;-76
2024/03/16 08:31:26;;;;;;;;;;;16.50;51.00;;;;;;5071596;28;19956;-77
2024/03/16 08:33:52;;;;;;;;;;;16.60;49.50;;;;;;5071996;28;19991;-77
2024/03/16 08:36:18;;;;;;;;;;;16.80;48.30;;;;;;5069452;28;19921;-76
2024/03/16 08:38:44;;;;;;;;;;;17.00;47.60;;;;;;5055710;28;20016;-76
2024/03/16 08:41:10;;;;;;;;;;;17.20;47.40;;;;;;5073172;28;20101;-69
2024/03/16 08:43:35;;;;;;;;;;;17.40;46.90;;;;;;5073161;28;19916;-70
2024/03/16 08:48:48;;;;;;;;;;;17.50;45.20;;;;;;5072963;28;19998;-70
2024/03/16 08:51:14;;;;;;;;;;;17.70;45.30;;;;;;5070309;28;19932;-75
2024/03/16 08:53:41;;;;;;;;;;;17.90;45.50;;;;;;5067011;28;19920;-76
2024/03/16 08:56:09;;;;;;;;;;;18.00;44.30;;;;;;5073366;28;20413;-70
2024/03/16 08:58:34;;;;;;;;;;;18.10;44.50;;;;;;5071376;28;19943;-70
2024/03/16 09:01:01;;;;;;;;;;;18.20;43.90;;;;;;5054491;28;19924;-76
2024/03/16 09:03:27;;;;;;;;;;;18.30;44.00;;;;;;5071127;28;19940;-76
2024/03/16 09:05:53;;;;;;;;;;;18.30;43.80;;;;;;5071378;28;19994;-70
2024/03/16 09:08:19;;;;;;;;;;;18.50;42.90;;;;;;5071432;28;20293;-75
2024/03/16 09:10:44;;;;;;;;;;;18.70;43.40;;;;;;5070341;28;20003;-70
2024/03/16 09:13:10;;;;;;;;;;;18.80;41.00;;;;;;5071306;28;19916;-76
2024/03/16 09:15:36;;;;;;;;;;;18.90;41.90;;;;;;5071506;28;19968;-76
2024/03/16 09:18:03;;;;;;;;;;;19.00;40.80;;;;;;5070653;28;21297;-76
2024/03/16 09:20:30;;;;;;;;;;;19.10;41.60;;;;;;5070640;28;20389;-70
2024/03/16 09:22:57;;;;;;;;;;;19.10;40.20;;;;;;5071224;28;20358;-70
2024/03/16 09:25:23;;;;;;;;;;;19.30;40.50;;;;;;5070909;28;19990;-76
2024/03/16 09:27:49;;;;;;;;;;;19.40;39.80;;;;;;5072250;28;20026;-72
2024/03/16 09:30:16;;;;;;;;;;;19.60;40.00;;;;;;5072041;28;20389;-76
2024/03/16 09:32:42;;;;;;;;;;;19.90;39.70;;;;;;5071201;28;19927;-71
2024/03/16 09:35:10;;;;;;;;;;;20.20;39.60;;;;;;5072474;28;19928;-77
2024/03/16 09:37:39;;;;;;;;;;;20.30;39.30;;;;;;5072130;28;19952;-70
2024/03/16 09:40:09;;;;;;;;;;;20.40;38.90;;;;;;5070462;28;20309;-76
2024/03/16 09:42:36;;;;;;;;;;;20.60;38.40;;;;;;5072090;28;20292;-77
2024/03/16 09:45:06;;;;;;;;;;;20.70;38.60;;;;;;5070756;28;20400;-71
2024/03/16 09:47:33;;;;;;;;;;;20.80;38.30;;;;;;5070590;28;20367;-76
2024/03/16 09:49:59;;;;;;;;;;;20.80;37.70;;;;;;5070918;28;19925;-77
2024/03/16 09:52:26;;;;;;;;;;;20.90;37.70;;;;;;5069950;28;20305;-75
2024/03/16 09:54:53;;;;;;;;;;;20.90;37.20;;;;;;5070638;28;19929;-77
2024/03/16 09:57:21;;;;;;;;;;;20.90;36.70;;;;;;5054096;28;20545;-71
2024/03/16 09:59:50;;;;;;;;;;;21.10;36.90;;;;;;5054128;28;19950;-76
2024/03/16 10:05:05;;;;;;;;;;;21.20;36.20;;;;;;5070622;28;19935;-70
2024/03/16 10:07:31;;;;;;;;;;;21.50;36.50;;;;;;5072030;28;19987;-70
2024/03/16 10:09:57;;;;;;;;;;;21.80;35.30;;;;;;5071989;28;20387;-76
2024/03/16 10:12:23;;;;;;;;;;;22.00;33.90;;;;;;5053108;28;19924;-76
2024/03/16 10:17:54;;;;;;;;;;;22.20;32.50;;;;;;5070735;28;19924;-77
2024/03/16 10:20:20;;;;;;;;;;;22.20;34.00;;;;;;5071290;28;19966;-71
2024/03/16 10:22:47;;;;;;;;;;;22.20;33.70;;;;;;5071072;28;20370;-71
2024/03/16 10:25:13;;;;;;;;;;;22.00;33.30;;;;;;5070267;28;19930;-70
2024/03/16 10:27:40;;;;;;;;;;;22.00;33.30;;;;;;5053703;28;20015;-70
2024/03/16 10:32:54;;;;;;;;;;;22.00;32.80;;;;;;5070701;28;20289;-70
2024/03/16 10:38:12;;;;;;;;;;;22.30;32.70;;;;;;5071461;28;19920;-75
2024/03/16 10:40:40;;;;;;;;;;;22.40;33.10;;;;;;5053147;28;20369;-70
2024/03/16 10:43:12;;;;;;;;;;;22.30;32.70;;;;;;5053276;28;19917;-70
2024/03/16 10:45:45;;;;;;;;;;;22.40;33.50;;;;;;5070411;28;19970;-76
2024/03/16 10:48:31;;;;;;;;;;;22.30;33.20;;;;;;5069969;28;19930;-70
2024/03/16 10:50:57;;;;;;;;;;;22.30;32.60;;;;;;5069786;28;19951;-77
2024/03/16 10:53:25;;;;;;;;;;;22.30;32.80;;;;;;5069760;28;19920;-70
2024/03/16 10:55:51;;;;;;;;;;;22.30;32.70;;;;;;5071693;28;19966;-76
2024/03/16 10:58:36;;;;;;;;;;;22.30;32.60;;;;;;5069776;28;19920;-77
2024/03/16 11:01:20;;;;;;;;;;;22.30;32.70;;;;;;5070993;28;19929;-77
2024/03/16 11:03:51;;;;;;;;;;;22.10;33.20;;;;;;5071084;28;19917;-76
2024/03/16 11:06:24;;;;;;;;;;;22.10;33.50;;;;;;5069945;28;20301;-70
2024/03/16 11:08:50;;;;;;;;;;;22.00;33.50;;;;;;5083867;28;19924;-70
2024/03/16 11:11:19;;;;;;;;;;;21.80;33.30;;;;;;5065993;28;19925;-77
2024/03/16 11:13:57;;;;;;;;;;;21.70;33.20;;;;;;5066438;28;19928;-76
2024/03/16 11:16:27;;;;;;;;;;;21.70;33.50;;;;;;5050899;28;20305;-71
2024/03/16 11:19:31;;;;;;;;;;;21.60;33.50;;;;;;5066487;28;19917;-77
2024/03/16 11:22:00;;;;;;;;;;;21.50;33.90;;;;;;5065900;28;19932;-76
2024/03/16 11:24:27;;;;;;;;;;;21.50;34.00;;;;;;5066046;28;20285;-70
2024/03/16 11:26:55;;;;;;;;;;;21.60;33.90;;;;;;5049623;28;19925;-76
2024/03/16 11:32:10;;;;;;;;;;;21.40;34.40;;;;;;5049751;28;19931;-76
2024/03/16 11:34:36;;;;;;;;;;;21.40;34.50;;;;;;5053204;28;19921;-76
2024/03/16 11:37:05;;;;;;;;;;;21.30;35.40;;;;;;5036879;28;20028;-70
2024/03/16 11:39:32;;;;;;;;;;;21.10;35.50;;;;;;5054311;28;19982;-70
2024/03/16 11:42:00;;;;;;;;;;;21.10;36.20;;;;;;5053833;28;19924;-70
2024/03/16 11:44:26;;;;;;;;;;;21.00;35.70;;;;;;5069559;28;19982;-76
2024/03/16 11:46:53;;;;;;;;;;;20.90;35.80;;;;;;5069558;28;20372;-76
2024/03/16 11:49:21;;;;;;;;;;;20.80;36.20;;;;;;5054087;28;19921;-76
2024/03/16 11:51:48;;;;;;;;;;;20.80;36.50;;;;;;5036043;28;19936;-76
2024/03/16 11:54:33;;;;;;;;;;;20.70;37.10;;;;;;5052796;28;19917;-70
2024/03/16 11:56:59;;;;;;;;;;;20.60;38.20;;;;;;5054314;28;19921;-77
2024/03/16 11:59:25;;;;;;;;;;;20.40;39.70;;;;;;5054042;28;19929;-76
2024/03/16 12:01:53;;;;;;;;;;;20.20;40.50;;;;;;5052290;28;20193;-70
2024/03/16 12:04:21;;;;;;;;;;;20.00;41.40;;;;;;5069262;28;20056;-76
2024/03/16 12:06:49;;;;;;;;;;;19.80;41.60;;;;;;5052963;28;20278;-74
2024/03/16 12:09:30;;;;;;;;;;;19.70;42.20;;;;;;5053837;28;19932;-76
2024/03/16 12:12:15;;;;;;;;;;;19.70;42.50;;;;;;5053360;28;19974;-70
2024/03/16 12:14:41;;;;;;;;;;;19.60;42.20;;;;;;5054063;28;19924;-69
2024/03/16 12:17:09;;;;;;;;;;;19.60;42.80;;;;;;5054240;28;19917;-70
2024/03/16 12:19:36;;;;;;;;;;;19.50;43.40;;;;;;5052491;28;20287;-69
2024/03/16 12:22:03;;;;;;;;;;;19.50;43.10;;;;;;5051874;28;19925;-70
2024/03/16 12:24:31;;;;;;;;;;;19.40;43.00;;;;;;5052231;28;19924;-77
2024/03/16 12:26:57;;;;;;;;;;;19.40;43.40;;;;;;5035750;28;19924;-77
2024/03/16 12:29:23;;;;;;;;;;;19.30;44.20;;;;;;5052282;28;20285;-70
2024/03/16 12:31:55;;;;;;;;;;;19.30;44.20;;;;;;5053290;28;19920;-70
2024/03/16 12:34:21;;;;;;;;;;;19.20;44.80;;;;;;5058948;28;19971;-76
2024/03/16 12:36:47;;;;;;;;;;;19.10;45.20;;;;;;5072100;28;19916;-76
2024/03/16 12:39:14;;;;;;;;;;;19.20;45.80;;;;;;5072059;28;19983;-77
2024/03/16 12:41:41;;;;;;;;;;;19.10;45.40;;;;;;5071617;28;19928;-76
2024/03/16 12:44:08;;;;;;;;;;;19.30;45.90;;;;;;5072787;28;19917;-76
2024/03/16 12:46:34;;;;;;;;;;;19.30;46.30;;;;;;5071727;28;19935;-70
2024/03/16 12:49:00;;;;;;;;;;;19.40;46.00;;;;;;5071960;28;20032;-77
2024/03/16 12:51:26;;;;;;;;;;;19.40;45.20;;;;;;5063293;28;19920;-70
2024/03/16 12:53:52;;;;;;;;;;;19.40;45.40;;;;;;5051943;28;20011;-69
2024/03/16 12:56:18;;;;;;;;;;;19.50;45.30;;;;;;5053365;28;20321;-75
2024/03/16 12:58:44;;;;;;;;;;;19.60;44.70;;;;;;5052892;28;19917;-70
2024/03/16 13:03:57;;;;;;;;;;;19.80;44.10;;;;;;5051810;28;19959;-70
2024/03/16 13:06:25;;;;;;;;;;;19.80;43.80;;;;;;5051476;28;20369;-70
2024/03/16 13:08:51;;;;;;;;;;;19.90;44.00;;;;;;5068055;28;19925;-70
2024/03/16 13:11:17;;;;;;;;;;;19.90;43.80;;;;;;5050768;28;19925;-77
2024/03/16 13:13:43;;;;;;;;;;;19.90;43.70;;;;;;5034800;28;20554;-70
2024/03/16 13:16:09;;;;;;;;;;;19.90;43.50;;;;;;5051489;28;20488;-77
2024/03/16 13:18:36;;;;;;;;;;;20.00;43.30;;;;;;5067844;28;20058;-77
2024/03/16 13:21:07;;;;;;;;;;;20.10;43.40;;;;;;5052013;28;19935;-77
2024/03/16 13:23:33;;;;;;;;;;;20.20;43.00;;;;;;5046891;28;20369;-70
2024/03/16 13:26:00;;;;;;;;;;;20.30;42.70;;;;;;5064827;28;20015;-70
2024/03/16 13:28:25;;;;;;;;;;;20.50;41.80;;;;;;5072320;28;20269;-70
2024/03/16 13:30:51;;;;;;;;;;;20.70;41.40;;;;;;5070480;28;19948;-76
2024/03/16 13:33:17;;;;;;;;;;;21.00;40.40;;;;;;5054227;28;19923;-70
2024/03/16 13:35:43;;;;;;;;;;;21.40;39.70;;;;;;5070894;28;19929;-77
2024/03/16 13:38:11;;;;;;;;;;;21.80;39.70;;;;;;5070748;28;20014;-76
2024/03/16 13:40:37;;;;;;;;;;;22.00;38.80;;;;;;5070720;28;19934;-76
2024/03/16 13:43:08;;;;;;;;;;;22.50;37.70;;;;;;5070597;28;19920;-75
2024/03/16 13:45:40;;;;;;;;;;;22.90;36.40;;;;;;5054845;28;20304;-76
2024/03/16 13:48:07;;;;;;;;;;;23.50;36.00;;;;;;5070570;28;20297;-76
2024/03/16 13:50:33;;;;;;;;;;;24.00;34.10;;;;;;5070284;28;20305;-70
2024/03/16 13:52:59;;;;;;;;;;;24.30;32.90;;;;;;5070737;28;19917;-76
2024/03/16 13:55:27;;;;;;;;;;;24.90;31.50;;;;;;5070179;28;19924;-70
2024/03/16 13:57:55;;;;;;;;;;;25.40;30.00;;;;;;5071739;28;19917;-70
2024/03/16 14:00:21;;;;;;;;;;;26.00;29.50;;;;;;5070054;28;20428;-70
2024/03/16 14:02:49;;;;;;;;;;;26.50;28.80;;;;;;5053927;28;19916;-77
2024/03/16 14:05:16;;;;;;;;;;;26.80;27.60;;;;;;5070235;28;19932;-77
2024/03/16 14:07:42;;;;;;;;;;;27.00;27.40;;;;;;5071986;28;19920;-76
2024/03/16 14:10:08;;;;;;;;;;;27.20;26.80;;;;;;5053272;28;20396;-71
2024/03/16 14:12:35;;;;;;;;;;;27.60;26.40;;;;;;5071884;28;20011;-70
2024/03/16 14:15:03;;;;;;;;;;;27.70;25.80;;;;;;5070438;28;19921;-70
2024/03/16 14:17:48;;;;;;;;;;;27.80;25.50;;;;;;5070461;28;19921;-76
2024/03/16 14:20:32;;;;;;;;;;;28.00;25.10;;;;;;5069802;28;19943;-75
2024/03/16 14:22:58;;;;;;;;;;;28.50;25.00;;;;;;5070323;28;19920;-71
2024/03/16 14:25:25;;;;;;;;;;;29.10;24.80;;;;;;5071724;28;20332;-77
2024/03/16 14:27:53;;;;;;;;;;;29.40;23.20;;;;;;5087140;28;19928;-77
2024/03/16 14:30:20;;;;;;;;;;;29.70;22.60;;;;;;5053062;28;19920;-76
2024/03/16 14:32:46;;;;;;;;;;;30.00;23.50;;;;;;5070132;28;19923;-77
2024/03/16 14:35:13;;;;;;;;;;;29.80;21.70;;;;;;5071331;28;19994;-71
2024/03/16 14:37:39;;;;;;;;;;;29.40;22.80;;;;;;5070244;28;19927;-77
2024/03/16 14:42:50;;;;;;;;;;;28.80;23.00;;;;;;5070325;28;19959;-76
2024/03/16 14:45:16;;;;;;;;;;;28.10;24.00;;;;;;5069925;28;20011;-70
2024/03/16 14:47:42;;;;;;;;;;;27.70;24.60;;;;;;5071395;28;19934;-71
2024/03/16 14:50:13;;;;;;;;;;;27.20;24.90;;;;;;5070788;28;19928;-76